Terminal Aerodrome Forecast
Issued by NWS

Home | Current Version | Previous Version | Text Only | Print | Product List | Glossary On
Versions: 1 2 3 4 5 6 7 8 9 10 11 12 13
000
FTUS45 KPSR 290521
TAFBLH
TAF
KBLH 290521Z 2906/3006 25010KT P6SM SKC
     FM291000 34005KT P6SM FEW250
     FM291900 18007KT P6SM BKN250
     FM300300 25008KT P6SM BKN250=

USA.gov is the U.S. government's official web portal to all federal, state and local government web resources and services.